Whitewater, CO (81527)

12:15 PM MDT on October 23, 2014 (GMT -0600)
Meadowvale | Change Station
CLOSE
Current Station
Personal Weather Station
Location: Grand Junction, CO
Elevation: 4642 ft
Nearby Weather Stations

Elev 4642 ft 39.07 °N, 108.48 °W | Updated 8 seconds ago

Clear
Clear
72.9 °F
Feels Like 77 °F
N
3.1
Wind Variable Wind from ENE
Gusts 6.9 mph

Today
High -- | Low -- °F
--% Chance of Precip.
Yesterday
High -- | Low -- °F
Precip. -- in
7:31 AM 6:23 PM
Waning Crescent, 0% visible
Pressure 30.14 in
Visibility 10.0 miles
Clouds Clear
Heat Index 77 °F
Dew Point 42 °F
Humidity 33%
Rainfall 0.00 in
Snow Depth 0 in
UV 5 out of 12
Pollen 1.40 out of 12
Air Quality Not available.
Flu Activity Sporadic
METAR KGJT 231753Z 13007KT 100V160 10SM CLR 17/03 A3025 RMK AO2 SLP207 T01720033 10172 20050 58006

More Conditions Fewer Conditions

Pressure 30.14 in
Visibility 10.0 miles
Clouds Clear
Heat Index 77 °F
Dew Point 42 °F
Humidity 33%
Rainfall 0.00 in
Snow Depth 0 in
UV 5 out of 12
Pollen 1.40 out of 12
Air Quality Not available.
Flu Activity Sporadic
METAR KGJT 231753Z 13007KT 100V160 10SM CLR 17/03 A3025 RMK AO2 SLP207 T01720033 10172 20050 58006

More Conditions Fewer Conditions

10-Day Weather Forecast

Almanac

Astronomy

Oct. 23, 2014 Rise Set
Actual Time 7:31 AM MDT 6:23 PM MDT
Civil Twilight 7:03 AM MDT 6:50 PM MDT
Nautical Twilight 6:32 AM MDT 7:22 PM MDT
Astronomical Twilight 6:01 AM MDT 7:52 PM MDT
Moon 7:14 AM MDT 6:27 PM MDT
Length of Visible Light 11h 46m
Length of Day
10h 52m
Tomorrow will be 2m 21s shorter.
Waning Crescent, 0% of the Moon is Illuminated
Today
Waning Crescent
Oct 23
New
Oct 30
First Quarter
Nov 6
Full
Nov 14
Last Quarter

Today's Extremes

State Highs State Lows

Community

WunderPhotos

Upload Photos

1,764,333 photos uploaded!

WunderBlogs® & News

Nearby

Snow Depth

Station Depth Elevation
Mesa Lakes 0 in 10000 ft
Park Reservoir 0 in 9960 ft
Columbine Pass 1 in 9400 ft
Overland Reservoir 1 in 9880 ft
North Lost Trail 1 in 9200 ft

Earthquake Activity

City Distance Mag. Time & Date
No recent earthquake activity has been reported nearby.
Minimum magnitude displayed is 2.5.

Coastal Water Temperatures

Place Temperature
No Stations Reporting

Nearby Weather Stations